Time,TemperatureF,DewpointF,PressureIn,WindDirection,WindDirectionDegrees,WindSpeedMPH,WindSpeedGustMPH,Humidity,HourlyPrecipIn,Conditions,Clouds,dailyrainin,SoftwareType,DateUTC
2013-05-14 00:01:00,55.0,35.0,29.97,SW,224,0.0,0.0,47,0.00,,,0.00,,2013-05-14 06:01:00,
2013-05-14 00:12:00,55.0,35.0,29.97,SW,224,0.0,0.0,47,0.00,,,0.00,,2013-05-14 06:12:00,
2013-05-14 00:22:00,54.0,35.0,29.97,SW,224,0.0,0.0,48,0.00,,,0.00,,2013-05-14 06:22:00,
2013-05-14 00:32:00,55.0,33.0,29.97,North,8,0.0,2.0,44,0.00,,,0.00,,2013-05-14 06:32:00,
2013-05-14 00:42:00,55.0,33.0,29.97,North,8,0.0,2.0,44,0.00,,,0.00,,2013-05-14 06:42:00,
2013-05-14 00:52:00,55.0,32.0,29.96,North,8,0.0,0.0,42,0.00,,,0.00,,2013-05-14 06:52:00,
2013-05-14 01:02:00,54.0,34.0,29.96,North,352,0.0,4.0,47,0.00,,,0.00,,2013-05-14 07:02:00,
2013-05-14 01:11:00,54.0,34.0,29.96,North,352,0.0,4.0,47,0.00,,,0.00,,2013-05-14 07:11:00,
2013-05-14 01:21:00,54.0,35.0,29.96,ENE,72,0.0,1.0,48,0.00,,,0.00,,2013-05-14 07:21:00,
2013-05-14 01:31:00,53.0,36.0,29.96,ENE,72,0.0,1.0,52,0.00,,,0.00,,2013-05-14 07:31:00,
2013-05-14 01:42:00,52.0,34.0,29.96,ENE,72,0.0,0.0,50,0.00,,,0.00,,2013-05-14 07:42:00,
2013-05-14 01:52:00,52.0,34.0,29.96,ENE,72,0.0,0.0,50,0.00,,,0.00,,2013-05-14 07:52:00,
2013-05-14 02:02:00,52.0,34.0,29.96,ENE,72,0.0,0.0,51,0.00,,,0.00,,2013-05-14 08:02:00,
2013-05-14 02:11:00,52.0,34.0,29.96,ENE,72,0.0,0.0,51,0.00,,,0.00,,2013-05-14 08:11:00,
2013-05-14 02:21:00,52.0,33.0,29.96,ENE,72,0.0,0.0,49,0.00,,,0.00,,2013-05-14 08:21:00,
2013-05-14 02:31:00,52.0,34.0,29.96,ENE,72,0.0,0.0,50,0.00,,,0.00,,2013-05-14 08:31:00,
2013-05-14 02:41:00,52.0,35.0,29.96,ENE,72,0.0,0.0,52,0.00,,,0.00,,2013-05-14 08:41:00,
2013-05-14 02:52:00,52.0,35.0,29.96,ENE,72,0.0,0.0,52,0.00,,,0.00,,2013-05-14 08:52:00,
2013-05-14 03:02:00,51.0,35.0,29.96,ENE,72,0.0,0.0,55,0.00,,,0.00,,2013-05-14 09:02:00,
2013-05-14 03:11:00,51.0,35.0,29.96,ENE,72,0.0,0.0,55,0.00,,,0.00,,2013-05-14 09:11:00,
2013-05-14 03:22:00,51.0,34.0,29.96,ENE,72,0.0,0.0,53,0.00,,,0.00,,2013-05-14 09:22:00,
2013-05-14 03:32:00,51.0,35.0,29.96,ENE,72,0.0,0.0,55,0.00,,,0.00,,2013-05-14 09:32:00,
2013-05-14 03:44:00,51.0,35.0,29.96,ENE,72,0.0,0.0,55,0.00,,,0.00,,2013-05-14 09:44:00,
2013-05-14 03:54:00,50.0,35.0,29.97,SW,225,0.0,1.0,57,0.00,,,0.00,,2013-05-14 09:54:00,
2013-05-14 04:04:00,49.0,36.0,29.97,NNW,341,0.0,1.0,60,0.00,,,0.00,,2013-05-14 10:04:00,
2013-05-14 04:14:00,49.0,36.0,29.97,NNW,341,0.0,1.0,60,0.00,,,0.00,,2013-05-14 10:14:00,
2013-05-14 04:25:00,49.0,35.0,29.97,NNW,341,0.0,0.0,59,0.00,,,0.00,,2013-05-14 10:25:00,
2013-05-14 04:33:00,50.0,36.0,29.98,North,359,0.0,0.0,58,0.00,,,0.00,,2013-05-14 10:33:00,
2013-05-14 04:42:00,50.0,36.0,29.98,North,359,0.0,0.0,58,0.00,,,0.00,,2013-05-14 10:42:00,
2013-05-14 04:52:00,49.0,35.0,29.98,North,359,0.0,0.0,59,0.00,,,0.00,,2013-05-14 10:52:00,
2013-05-14 05:02:00,50.0,36.0,29.98,North,359,0.0,0.0,59,0.00,,,0.00,,2013-05-14 11:02:00,
2013-05-14 05:11:00,50.0,36.0,29.98,North,359,0.0,0.0,59,0.00,,,0.00,,2013-05-14 11:11:00,
2013-05-14 05:21:00,49.0,36.0,29.98,North,356,0.0,0.0,60,0.00,,,0.00,,2013-05-14 11:21:00,
2013-05-14 05:32:00,49.0,37.0,29.98,North,358,0.0,0.0,63,0.00,,,0.00,,2013-05-14 11:32:00,
2013-05-14 05:43:00,49.0,37.0,29.98,North,358,0.0,0.0,63,0.00,,,0.00,,2013-05-14 11:43:00,
2013-05-14 05:53:00,48.0,37.0,29.97,North,359,0.0,0.0,65,0.00,,,0.00,,2013-05-14 11:53:00,
2013-05-14 06:02:00,47.0,36.0,29.98,North,359,0.0,0.0,66,0.00,,,0.00,,2013-05-14 12:02:00,
2013-05-14 06:12:00,47.0,36.0,29.98,North,359,0.0,0.0,66,0.00,,,0.00,,2013-05-14 12:12:00,
2013-05-14 06:21:00,47.0,37.0,29.98,North,358,0.0,0.0,69,0.00,,,0.00,,2013-05-14 12:21:00,
2013-05-14 06:32:00,46.0,37.0,29.98,North,358,0.0,0.0,72,0.00,,,0.00,,2013-05-14 12:32:00,
2013-05-14 06:42:00,46.0,37.0,29.98,North,358,0.0,0.0,72,0.00,,,0.00,,2013-05-14 12:42:00,
2013-05-14 06:52:00,46.0,37.0,29.98,North,356,0.0,0.0,72,0.00,,,0.00,,2013-05-14 12:52:00,
2013-05-14 07:01:00,47.0,39.0,29.99,North,358,0.0,0.0,73,0.00,,,0.00,,2013-05-14 13:01:00,
2013-05-14 07:22:00,48.0,39.0,29.99,North,359,0.0,0.0,72,0.00,,,0.00,,2013-05-14 13:22:00,
2013-05-14 07:32:00,49.0,42.0,30.00,North,356,0.0,0.0,76,0.00,,,0.00,,2013-05-14 13:32:00,
2013-05-14 08:01:00,53.0,42.0,30.00,North,359,0.0,0.0,65,0.00,,,0.00,,2013-05-14 14:01:00,
2013-05-14 08:11:00,53.0,42.0,30.00,North,359,0.0,0.0,65,0.00,,,0.00,,2013-05-14 14:11:00,
2013-05-14 08:22:00,56.0,40.0,30.01,North,359,0.0,1.0,54,0.00,,,0.00,,2013-05-14 14:22:00,
2013-05-14 08:32:00,60.0,42.0,30.01,SSE,153,0.0,3.0,51,0.00,,,0.00,,2013-05-14 14:32:00,
2013-05-14 08:41:00,60.0,42.0,30.01,SSE,153,0.0,3.0,51,0.00,,,0.00,,2013-05-14 14:41:00,
2013-05-14 08:52:00,64.0,42.0,30.01,SSW,212,0.0,3.0,44,0.00,,,0.00,,2013-05-14 14:52:00,
2013-05-14 09:01:00,67.0,43.0,30.00,SE,128,0.0,4.0,41,0.00,,,0.00,,2013-05-14 15:01:00,
2013-05-14 09:12:00,67.0,43.0,30.00,SE,128,0.0,4.0,41,0.00,,,0.00,,2013-05-14 15:12:00,
2013-05-14 09:22:00,68.0,41.0,30.00,SSE,167,0.0,2.0,38,0.00,,,0.00,,2013-05-14 15:22:00,
2013-05-14 09:33:00,70.0,42.0,30.00,SW,221,0.0,3.0,36,0.00,,,0.00,,2013-05-14 15:33:00,
2013-05-14 09:43:00,71.0,42.0,29.99,SSW,212,1.0,2.0,35,0.00,,,0.00,,2013-05-14 15:43:00,
2013-05-14 09:53:00,71.0,42.0,29.99,SSW,212,1.0,2.0,35,0.00,,,0.00,,2013-05-14 15:53:00,
2013-05-14 10:02:00,73.0,41.0,29.99,South,181,0.0,3.0,32,0.00,,,0.00,,2013-05-14 16:02:00,
2013-05-14 10:12:00,73.0,41.0,29.99,South,181,0.0,3.0,32,0.00,,,0.00,,2013-05-14 16:12:00,
2013-05-14 10:23:00,74.0,42.0,29.98,SSW,212,0.0,3.0,32,0.00,,,0.00,,2013-05-14 16:23:00,
2013-05-14 10:33:00,75.0,43.0,29.98,NNW,342,0.0,2.0,32,0.00,,,0.00,,2013-05-14 16:33:00,
2013-05-14 10:43:00,75.0,43.0,29.98,NNW,342,0.0,2.0,32,0.00,,,0.00,,2013-05-14 16:43:00,
2013-05-14 10:54:00,77.0,44.0,29.98,SW,217,1.0,4.0,31,0.00,,,0.00,,2013-05-14 16:54:00,
2013-05-14 11:03:00,77.0,44.0,29.97,SSW,201,1.0,5.0,31,0.00,,,0.00,,2013-05-14 17:03:00,
2013-05-14 11:13:00,77.0,44.0,29.97,SSW,201,1.0,5.0,31,0.00,,,0.00,,2013-05-14 17:13:00,
2013-05-14 11:24:00,78.0,42.0,29.96,South,173,1.0,5.0,28,0.00,,,0.00,,2013-05-14 17:24:00,
2013-05-14 11:32:00,79.0,43.0,29.96,WSW,257,0.0,3.0,28,0.00,,,0.00,,2013-05-14 17:32:00,
2013-05-14 11:43:00,79.0,43.0,29.96,WSW,257,0.0,3.0,28,0.00,,,0.00,,2013-05-14 17:43:00,
2013-05-14 11:52:00,81.0,42.0,29.95,West,278,1.0,5.0,25,0.00,,,0.00,,2013-05-14 17:52:00,
2013-05-14 12:02:00,82.0,42.0,29.94,SSW,196,1.0,4.0,24,0.00,,,0.00,,2013-05-14 18:02:00,
2013-05-14 12:12:00,82.0,42.0,29.94,SSW,196,1.0,4.0,24,0.00,,,0.00,,2013-05-14 18:12:00,
2013-05-14 12:22:00,82.0,42.0,29.93,WSW,252,0.0,4.0,24,0.00,,,0.00,,2013-05-14 18:22:00,
2013-05-14 12:32:00,82.0,38.0,29.92,NE,56,1.0,5.0,21,0.00,,,0.00,,2013-05-14 18:32:00,
2013-05-14 12:42:00,82.0,38.0,29.92,NE,56,1.0,5.0,21,0.00,,,0.00,,2013-05-14 18:42:00,
2013-05-14 12:52:00,84.0,40.0,29.91,SE,129,1.0,6.0,21,0.00,,,0.00,,2013-05-14 18:52:00,
2013-05-14 13:01:00,84.0,40.0,29.91,SE,129,1.0,6.0,21,0.00,,,0.00,,2013-05-14 19:01:00,
2013-05-14 13:12:00,84.0,40.0,29.91,SE,129,1.0,6.0,21,0.00,,,0.00,,2013-05-14 19:12:00,
2013-05-14 13:22:00,84.0,40.0,29.91,SE,129,1.0,6.0,21,0.00,,,0.00,,2013-05-14 19:22:00,
2013-05-14 13:32:00,84.0,40.0,29.91,SE,129,1.0,6.0,21,0.00,,,0.00,,2013-05-14 19:32:00,
2013-05-14 14:52:00,86.0,33.0,29.84,SSW,200,1.0,4.0,15,0.00,,,0.00,,2013-05-14 20:52:00,
2013-05-14 15:03:00,86.0,31.0,29.83,ESE,115,1.0,4.0,14,0.00,,,0.00,,2013-05-14 21:03:00,
2013-05-14 15:12:00,86.0,31.0,29.83,ESE,115,1.0,4.0,14,0.00,,,0.00,,2013-05-14 21:12:00,
2013-05-14 15:23:00,86.0,35.0,29.83,South,181,0.0,2.0,16,0.00,,,0.00,,2013-05-14 21:23:00,
2013-05-14 15:33:00,86.0,31.0,29.82,West,264,1.0,4.0,14,0.00,,,0.00,,2013-05-14 21:33:00,
2013-05-14 15:43:00,86.0,31.0,29.82,West,264,1.0,4.0,14,0.00,,,0.00,,2013-05-14 21:43:00,
2013-05-14 15:53:00,86.0,33.0,29.81,SSE,160,1.0,4.0,15,0.00,,,0.00,,2013-05-14 21:53:00,
2013-05-14 16:03:00,87.0,35.0,29.80,NW,321,0.0,6.0,16,0.00,,,0.00,,2013-05-14 22:03:00,
2013-05-14 16:13:00,87.0,35.0,29.80,NW,321,0.0,6.0,16,0.00,,,0.00,,2013-05-14 22:13:00,
2013-05-14 16:24:00,88.0,33.0,29.79,WSW,239,2.0,4.0,14,0.00,,,0.00,,2013-05-14 22:24:00,
2013-05-14 16:34:00,86.0,36.0,29.78,ESE,109,2.0,9.0,17,0.00,,,0.00,,2013-05-14 22:34:00,
2013-05-14 16:45:00,86.0,36.0,29.78,ESE,109,2.0,9.0,17,0.00,,,0.00,,2013-05-14 22:45:00,
2013-05-14 16:54:00,86.0,36.0,29.78,ESE,117,2.0,7.0,17,0.00,,,0.00,,2013-05-14 22:54:00,
2013-05-14 17:03:00,85.0,34.0,29.77,ESE,115,1.0,6.0,16,0.00,,,0.00,,2013-05-14 23:03:00,
2013-05-14 17:12:00,85.0,34.0,29.77,ESE,115,1.0,6.0,16,0.00,,,0.00,,2013-05-14 23:12:00,
2013-05-14 17:21:00,84.0,33.0,29.77,SW,225,1.0,7.0,16,0.00,,,0.00,,2013-05-14 23:21:00,
2013-05-14 17:32:00,83.0,32.0,29.77,South,180,2.0,5.0,16,0.00,,,0.00,,2013-05-14 23:32:00,
2013-05-14 17:44:00,83.0,32.0,29.77,South,180,2.0,5.0,16,0.00,,,0.00,,2013-05-14 23:44:00,
2013-05-14 17:53:00,83.0,32.0,29.77,South,180,2.0,5.0,16,0.00,,,0.00,,2013-05-14 23:53:00,
2013-05-14 18:02:00,81.0,36.0,29.76,SW,217,0.0,6.0,20,0.00,,,0.00,,2013-05-15 00:02:00,
2013-05-14 18:11:00,81.0,36.0,29.76,SW,217,0.0,6.0,20,0.00,,,0.00,,2013-05-15 00:11:00,
2013-05-14 18:21:00,81.0,35.0,29.76,SW,221,0.0,1.0,19,0.00,,,0.00,,2013-05-15 00:21:00,
2013-05-14 18:32:00,81.0,35.0,29.75,SW,226,0.0,3.0,19,0.00,,,0.00,,2013-05-15 00:32:00,
2013-05-14 18:42:00,81.0,35.0,29.75,SW,226,0.0,3.0,19,0.00,,,0.00,,2013-05-15 00:42:00,
2013-05-14 18:52:00,80.0,35.0,29.75,SSW,197,0.0,3.0,20,0.00,,,0.00,,2013-05-15 00:52:00,
2013-05-14 19:01:00,80.0,37.0,29.75,SW,218,0.0,1.0,21,0.00,,,0.00,,2013-05-15 01:01:00,
2013-05-14 19:11:00,80.0,37.0,29.75,SW,218,0.0,1.0,21,0.00,,,0.00,,2013-05-15 01:11:00,
2013-05-14 19:21:00,79.0,37.0,29.75,SW,221,0.0,3.0,22,0.00,,,0.00,,2013-05-15 01:21:00,
2013-05-14 19:31:00,78.0,35.0,29.75,SW,218,0.0,2.0,21,0.00,,,0.00,,2013-05-15 01:31:00,
2013-05-14 19:42:00,78.0,35.0,29.75,SW,218,0.0,2.0,21,0.00,,,0.00,,2013-05-15 01:42:00,
2013-05-14 19:52:00,77.0,35.0,29.75,NW,322,0.0,0.0,22,0.00,,,0.00,,2013-05-15 01:52:00,
2013-05-14 20:02:00,75.0,36.0,29.76,West,278,0.0,1.0,24,0.00,,,0.00,,2013-05-15 02:02:00,
2013-05-14 20:21:00,73.0,35.0,29.75,West,277,0.0,0.0,25,0.00,,,0.00,,2013-05-15 02:21:00,
2013-05-14 20:31:00,70.0,34.0,29.76,West,276,0.0,0.0,27,0.00,,,0.00,,2013-05-15 02:31:00,
2013-05-14 20:52:00,69.0,35.0,29.77,West,276,0.0,0.0,29,0.00,,,0.00,,2013-05-15 02:52:00,
2013-05-14 21:01:00,71.0,31.0,29.78,ENE,78,0.0,1.0,23,0.00,,,0.00,,2013-05-15 03:01:00,
2013-05-14 21:33:00,72.0,32.0,29.78,NW,306,0.0,1.0,23,0.00,,,0.00,,2013-05-15 03:33:00,
2013-05-14 21:44:00,71.0,31.0,29.79,NW,307,0.0,0.0,23,0.00,,,0.00,,2013-05-15 03:44:00,
2013-05-14 21:54:00,71.0,31.0,29.79,NW,307,0.0,0.0,23,0.00,,,0.00,,2013-05-15 03:54:00,
2013-05-14 22:03:00,70.0,32.0,29.80,NW,307,0.0,0.0,24,0.00,,,0.00,,2013-05-15 04:03:00,
2013-05-14 22:24:00,68.0,35.0,29.81,NW,306,0.0,0.0,30,0.00,,,0.00,,2013-05-15 04:24:00,
2013-05-14 22:33:00,67.0,36.0,29.81,NW,307,0.0,0.0,32,0.00,,,0.00,,2013-05-15 04:33:00,
2013-05-14 22:52:00,66.0,36.0,29.81,NW,307,0.0,0.0,33,0.00,,,0.00,,2013-05-15 04:52:00,
2013-05-14 23:02:00,65.0,37.0,29.81,NW,307,0.0,0.0,36,0.00,,,0.00,,2013-05-15 05:02:00,
2013-05-14 23:22:00,63.0,37.0,29.81,NW,307,0.0,1.0,38,0.00,,,0.00,,2013-05-15 05:22:00,
2013-05-14 23:32:00,62.0,37.0,29.81,NW,307,0.0,1.0,39,0.00,,,0.00,,2013-05-15 05:32:00,
2013-05-14 23:52:00,62.0,38.0,29.81,NW,307,0.0,0.0,41,0.00,,,0.00,,2013-05-15 05:52:00,